»·PEaware :: AAL982 KSFO-KLAX

AAL982 :: KSFO-KLAX

FLIGHT INFORMATION

Flight Status: Arrived
Operator:
American Airlines
More flights by this operator :: More flights under this callsign
Pilot: Anonymous 15639 (15639)
Aircraft: BOEING 727-100
(B721)
More flights by this aircraft type
Origin: KSFO San Francisco Intl
United States
Destination: KLAX Los Angeles Intl
United States
More flights between these airports :: More routes between these airports
Route: +OFFSH1 RZS SADDE8
File this flight plan on PilotEdge
Remarks:
Altitude:
(Current/Filed)
31,000ft
Speed:
(Current/Filed)
491kts
Departed: 21-Aug-18 01:37 PM
Arrived: 21-Aug-18 02:38 PM
Distance/Time
Traveled:
293nm/1:00
Distance/Time
To Go:
Arrived

Flight Plot

Page will automatically refresh every two minutes.

Flight plan parsing failed; only flown route is shown


Map Options




Map Legend


Flown Route
Filed Route
Departure Airport
Arrival Airport
Navaid (VOR, NDB)
Fix

Horizontal Profiles

Position Reports

Time Latitude Longitude Heading Altitude Ground
Speed
21-Aug-18 13:13 37.616729 -122.381720 22 24ft 0kts
21-Aug-18 13:14 37.616729 -122.381720 22 24ft 0kts
21-Aug-18 13:15 37.616729 -122.381720 22 24ft 0kts
21-Aug-18 13:16 37.616729 -122.381720 22 24ft 0kts
21-Aug-18 13:17 37.616729 -122.381720 22 24ft 0kts
21-Aug-18 13:18 37.616729 -122.381720 22 24ft 0kts
21-Aug-18 13:19 37.616729 -122.381720 22 24ft 0kts
21-Aug-18 13:20 37.616729 -122.381720 22 24ft 0kts
21-Aug-18 13:21 37.616729 -122.381720 22 24ft 0kts
21-Aug-18 13:22 37.616729 -122.381720 22 24ft 0kts
21-Aug-18 13:23 37.616729 -122.381720 22 24ft 0kts
21-Aug-18 13:24 37.616729 -122.381720 22 24ft 0kts
21-Aug-18 13:25 37.616729 -122.381720 22 24ft 0kts
21-Aug-18 13:26 37.616729 -122.381720 22 24ft 0kts
21-Aug-18 13:27 37.616729 -122.381720 22 25ft 0kts
21-Aug-18 13:28 37.616372 -122.381903 22 24ft 2kts
21-Aug-18 13:29 37.616030 -122.382423 105 24ft 2kts
21-Aug-18 13:30 37.616085 -122.382574 118 24ft 0kts
21-Aug-18 13:31 37.616085 -122.382574 118 24ft 0kts
21-Aug-18 13:32 37.616085 -122.382574 118 24ft 0kts
21-Aug-18 13:33 37.615638 -122.381524 119 24ft 4kts
21-Aug-18 13:34 37.614474 -122.381058 207 24ft 6kts
21-Aug-18 13:35 37.612055 -122.382675 207 24ft 9kts
21-Aug-18 13:36 37.610167 -122.384042 208 24ft 7kts
21-Aug-18 13:37 37.609311 -122.384624 204 24ft 7kts
21-Aug-18 13:38 37.610232 -122.381313 27 25ft 62kts
21-Aug-18 13:39 37.638237 -122.366766 353 1266ft 153kts
21-Aug-18 13:40 37.681899 -122.370162 312 2908ft 191kts
21-Aug-18 13:41 37.657527 -122.413330 209 5381ft 193kts
21-Aug-18 13:42 37.608085 -122.453213 212 8119ft 229kts
21-Aug-18 13:43 37.550011 -122.501180 215 10698ft 270kts
21-Aug-18 13:44 37.485626 -122.555355 217 13699ft 285kts
21-Aug-18 13:45 37.417589 -122.612856 213 16393ft 301kts
21-Aug-18 13:46 37.339316 -122.667046 189 18523ft 331kts
21-Aug-18 13:47 37.248984 -122.641922 165 20870ft 344kts
21-Aug-18 13:48 37.154752 -122.613631 171 22699ft 357kts
21-Aug-18 13:49 37.054775 -122.586871 171 24137ft 379kts
21-Aug-18 13:50 36.949029 -122.558425 169 25341ft 401kts
21-Aug-18 13:51 36.837513 -122.528921 169 26472ft 420kts
21-Aug-18 13:52 36.721948 -122.497900 169 27731ft 430kts
21-Aug-18 13:53 36.603822 -122.466273 169 28914ft 438kts
21-Aug-18 13:54 36.484006 -122.434258 169 29986ft 445kts
21-Aug-18 13:55 36.379621 -122.355593 133 30850ft 463kts
21-Aug-18 13:56 36.294028 -122.233526 133 31096ft 484kts
21-Aug-18 13:57 36.203617 -122.104928 133 31094ft 507kts
21-Aug-18 13:58 36.112168 -121.974954 133 31091ft 501kts
21-Aug-18 13:59 36.019712 -121.846073 134 31091ft 504kts
21-Aug-18 14:00 35.925833 -121.717218 133 31091ft 506kts
21-Aug-18 14:01 35.833027 -121.588959 132 31075ft 499kts
21-Aug-18 14:02 35.744157 -121.460729 132 31053ft 487kts
21-Aug-18 14:03 35.657441 -121.336151 132 31025ft 477kts
21-Aug-18 14:04 35.572248 -121.213792 132 31024ft 468kts
21-Aug-18 14:05 35.488416 -121.094103 133 31029ft 460kts
21-Aug-18 14:06 35.406016 -120.976917 133 31041ft 452kts
21-Aug-18 14:07 35.323879 -120.861289 133 31053ft 448kts
21-Aug-18 14:08 35.239659 -120.750237 135 31055ft 448kts
21-Aug-18 14:09 35.153344 -120.639402 137 31057ft 450kts
21-Aug-18 14:10 35.062824 -120.533902 138 31061ft 453kts
21-Aug-18 14:11 34.971699 -120.427587 138 31065ft 456kts
21-Aug-18 14:12 34.884070 -120.316362 134 31068ft 458kts
21-Aug-18 14:13 34.802073 -120.197450 132 30768ft 465kts
21-Aug-18 14:14 34.721814 -120.080056 132 28938ft 453kts
21-Aug-18 14:15 34.642788 -119.964734 132 26802ft 439kts
21-Aug-18 14:16 34.565864 -119.853355 132 24718ft 425kts
21-Aug-18 14:17 34.502911 -119.739745 123 24024ft 383kts
21-Aug-18 14:18 34.440560 -119.633488 131 21956ft 398kts
21-Aug-18 14:19 34.376499 -119.525074 124 19797ft 394kts
21-Aug-18 14:20 34.318198 -119.415347 125 17866ft 384kts
21-Aug-18 14:21 34.260486 -119.309570 127 16032ft 373kts
21-Aug-18 14:22 34.203246 -119.207748 126 13914ft 356kts
21-Aug-18 14:23 34.150674 -119.113857 126 12986ft 316kts
21-Aug-18 14:24 34.107316 -119.030232 108 12990ft 278kts
21-Aug-18 14:25 34.084633 -118.939897 109 13010ft 296kts
21-Aug-18 14:26 34.059102 -118.843717 110 11668ft 308kts
21-Aug-18 14:27 34.032879 -118.747744 101 9733ft 298kts
21-Aug-18 14:28 34.026217 -118.649730 96 7308ft 290kts
21-Aug-18 14:29 34.019142 -118.558751 96 6997ft 257kts
21-Aug-18 14:30 34.012074 -118.475957 97 7004ft 244kts
21-Aug-18 14:31 34.016555 -118.395149 80 6273ft 244kts
21-Aug-18 14:32 34.028784 -118.315936 80 5139ft 241kts
21-Aug-18 14:33 34.034068 -118.240771 117 3715ft 233kts
21-Aug-18 14:34 33.986014 -118.223458 205 2910ft 191kts
21-Aug-18 14:35 33.964829 -118.269031 266 2449ft 173kts
21-Aug-18 14:36 33.960528 -118.321019 261 1679ft 148kts
21-Aug-18 14:37 33.955803 -118.365625 260 817ft 136kts
21-Aug-18 14:38 33.951224 -118.410508 262 139ft 115kts
21-Aug-18 14:39 33.949178 -118.425872 234 139ft 8kts
21-Aug-18 14:40 33.946983 -118.427757 183 139ft 10kts
21-Aug-18 14:41 33.946646 -118.424169 80 139ft 14kts
21-Aug-18 14:42 33.947181 -118.418905 83 139ft 17kts
21-Aug-18 14:43 33.947742 -118.414037 74 139ft 12kts
21-Aug-18 14:44 33.948283 -118.409592 80 139ft 13kts
21-Aug-18 14:45 33.948142 -118.405930 165 139ft 9kts
21-Aug-18 14:46 33.946598 -118.404820 117 139ft 1kts
21-Aug-18 14:47 33.946594 -118.404812 117 139ft 0kts
21-Aug-18 14:48 33.946594 -118.404812 117 139ft 0kts

Navigation Log

Ident Type
Flight plan parsing failed, navigation log unavailable